Terminal Aerodrome Forecast
Issued by NWS

Home | Current Version | Previous Version | Text Only | Print | Product List | Glossary On
Versions: 1 2 3 4 5 6 7 8 9 10 11 12 13 14 15
658
FTUS43 KDLH 111736
TAFBRD
TAF
KBRD 111736Z 1118/1218 23005KT P6SM SCT015 BKN040
     FM112200 26005KT P6SM SCT010 BKN025
      TEMPO 1123/1203 SCT007 OVC020
     FM121400 33012G20KT P6SM SCT015=

USA.gov is the U.S. government's official web portal to all federal, state and local government web resources and services.